createdAt,value
2022-12-07T00:01:44.869Z,15.27
2022-12-07T00:04:17.946Z,13.98
2022-12-07T00:07:27.700Z,14.80
2022-12-07T00:09:56.980Z,15.75
2022-12-07T00:12:41.852Z,13.48
2022-12-07T00:15:35.805Z,14.80
2022-12-07T00:18:04.763Z,13.98
2022-12-07T00:20:48.179Z,14.75
2022-12-07T00:23:25.482Z,13.93
2022-12-07T00:26:15.521Z,14.68
2022-12-07T00:28:46.445Z,14.95
2022-12-07T00:31:20.508Z,13.60
2022-12-07T00:34:02.329Z,14.35
2022-12-07T00:36:43.610Z,15.48
2022-12-07T00:39:13.572Z,15.55
2022-12-07T00:41:48.755Z,15.55
2022-12-07T00:47:34.468Z,15.02
2022-12-07T00:50:32.610Z,15.25
2022-12-07T00:53:42.185Z,13.82
2022-12-07T00:56:24.119Z,13.85
2022-12-07T00:58:59.953Z,14.48
2022-12-07T01:04:45.725Z,14.43
2022-12-07T01:07:13.494Z,14.73
2022-12-07T01:09:43.634Z,14.20
2022-12-07T01:12:13.438Z,15.25
2022-12-07T01:14:43.803Z,14.65
2022-12-07T01:17:30.327Z,13.70
2022-12-07T01:20:08.381Z,13.25
2022-12-07T01:22:58.347Z,13.57
2022-12-07T01:25:26.268Z,13.77
2022-12-07T01:28:10.478Z,15.13
2022-12-07T01:30:39.284Z,13.77
2022-12-07T01:33:13.765Z,14.82
2022-12-07T01:35:42.685Z,13.85
2022-12-07T01:38:11.605Z,13.73
2022-12-07T01:41:06.559Z,13.15
2022-12-07T01:43:57.082Z,15.45
2022-12-07T01:46:45.085Z,12.93
2022-12-07T01:49:22.963Z,13.77
2022-12-07T01:51:51.358Z,13.18
2022-12-07T01:54:37.519Z,14.27
2022-12-07T01:57:08.676Z,12.57
2022-12-07T01:59:44.133Z,14.85
2022-12-07T02:02:18.210Z,13.00
2022-12-07T02:05:15.133Z,13.80
2022-12-07T02:07:48.304Z,13.95
2022-12-07T02:10:19.511Z,14.18
2022-12-07T02:12:51.339Z,14.98
2022-12-07T02:18:43.808Z,12.40
2022-12-07T02:21:38.776Z,13.68
2022-12-07T02:24:47.644Z,15.15
2022-12-07T02:27:36.214Z,13.35
2022-12-07T02:30:08.277Z,14.48
2022-12-07T02:32:47.226Z,16.45
2022-12-07T02:35:24.197Z,14.45
2022-12-07T02:38:26.396Z,14.23
2022-12-07T02:40:56.515Z,12.85
2022-12-07T02:43:36.632Z,13.48
2022-12-07T02:46:08.355Z,14.27
2022-12-07T02:48:54.377Z,14.68
2022-12-07T02:51:43.907Z,14.43
2022-12-07T02:54:31.175Z,15.50
2022-12-07T02:57:22.050Z,14.32
2022-12-07T03:00:09.350Z,11.70
2022-12-07T03:02:55.818Z,15.07
2022-12-07T03:09:05.718Z,12.95
2022-12-07T03:12:09.849Z,13.95
2022-12-07T03:15:00.651Z,13.68
2022-12-07T03:17:31.223Z,13.00
2022-12-07T03:20:01.334Z,13.03
2022-12-07T03:22:42.184Z,13.83
2022-12-07T03:25:25.128Z,12.93
2022-12-07T03:28:00.773Z,13.20
2022-12-07T03:34:02.273Z,13.68
2022-12-07T03:37:06.392Z,12.52
2022-12-07T03:40:04.693Z,14.38
2022-12-07T03:42:52.397Z,15.00
2022-12-07T03:45:27.941Z,14.10
2022-12-07T03:48:02.052Z,12.30
2022-12-07T03:50:38.396Z,13.05
2022-12-07T03:53:23.856Z,14.88
2022-12-07T03:56:00.425Z,12.95
2022-12-07T03:59:13.414Z,13.85
2022-12-07T04:01:55.365Z,13.80
2022-12-07T04:04:43.803Z,13.40
2022-12-07T04:07:34.409Z,13.93
2022-12-07T04:10:17.847Z,13.02
2022-12-07T04:12:45.794Z,13.10
2022-12-07T04:15:49.066Z,12.38
2022-12-07T04:18:26.133Z,12.70
2022-12-07T04:21:00.304Z,12.82
2022-12-07T04:23:34.619Z,14.38
2022-12-07T04:26:24.485Z,13.43
2022-12-07T04:28:58.016Z,12.35
2022-12-07T04:31:26.833Z,15.75
2022-12-07T04:34:11.200Z,13.98
2022-12-07T04:36:53.414Z,13.90
2022-12-07T04:39:49.428Z,14.70
2022-12-07T04:42:31.574Z,14.32
2022-12-07T04:45:10.381Z,14.65
2022-12-07T04:47:38.361Z,14.25
2022-12-07T04:50:13.128Z,12.65
2022-12-07T04:52:43.203Z,11.77
2022-12-07T04:55:34.345Z,11.18
2022-12-07T04:58:18.605Z,10.27
2022-12-07T05:00:47.151Z,10.05
2022-12-07T05:03:15.297Z,11.07
2022-12-07T05:05:50.397Z,11.68
2022-12-07T05:08:18.574Z,11.40
2022-12-07T05:11:11.256Z,10.80
2022-12-07T05:13:40.358Z,9.77
2022-12-07T05:16:10.223Z,10.60
2022-12-07T05:18:47.229Z,10.80
2022-12-07T05:21:16.163Z,10.93
2022-12-07T05:23:44.014Z,10.13
2022-12-07T05:26:19.215Z,12.52
2022-12-07T05:29:13.398Z,11.20
2022-12-07T05:31:49.276Z,12.60
2022-12-07T05:37:35.407Z,11.88
2022-12-07T05:40:15.175Z,12.38
2022-12-07T05:42:44.662Z,12.13
2022-12-07T05:45:18.682Z,12.25
2022-12-07T05:47:46.330Z,12.25
2022-12-07T05:50:14.292Z,12.13
2022-12-07T05:52:42.275Z,12.45
2022-12-07T05:55:16.307Z,12.60
2022-12-07T05:58:21.628Z,11.93
2022-12-07T06:00:52.850Z,12.93
2022-12-07T06:06:39.272Z,12.80
2022-12-07T06:09:09.658Z,13.38
2022-12-07T06:14:50.489Z,13.40
2022-12-07T06:17:21.628Z,13.10
2022-12-07T06:19:49.584Z,15.30
2022-12-07T06:22:18.636Z,13.50
2022-12-07T06:24:49.667Z,13.40
2022-12-07T06:27:44.434Z,12.88
2022-12-07T06:30:15.444Z,12.60
2022-12-07T06:32:52.661Z,12.05
2022-12-07T06:35:20.914Z,12.63
2022-12-07T06:38:20.318Z,13.60
2022-12-07T06:40:48.163Z,12.10
2022-12-07T06:43:17.180Z,13.63
2022-12-07T06:46:00.655Z,13.45
2022-12-07T06:48:28.603Z,13.65
2022-12-07T06:54:12.699Z,12.70
2022-12-07T06:56:54.030Z,12.95
2022-12-07T06:59:28.377Z,13.13
2022-12-07T07:02:00.846Z,13.38
2022-12-07T07:04:36.036Z,13.20
2022-12-07T07:07:10.806Z,14.15
2022-12-07T07:09:51.779Z,12.88
2022-12-07T07:12:19.777Z,13.10
2022-12-07T07:14:48.680Z,13.65
2022-12-07T07:17:39.544Z,13.05
2022-12-07T07:20:17.696Z,14.18
2022-12-07T07:22:51.120Z,13.73
2022-12-07T07:25:38.174Z,13.98
2022-12-07T07:28:07.381Z,13.75
2022-12-07T07:30:45.321Z,13.50
2022-12-07T07:33:21.479Z,14.35
2022-12-07T07:36:00.700Z,14.02
2022-12-07T07:39:02.856Z,14.20
2022-12-07T07:41:36.898Z,14.23
2022-12-07T07:44:13.789Z,14.30
2022-12-07T07:46:58.169Z,13.48
2022-12-07T07:49:27.584Z,14.07
2022-12-07T07:51:57.763Z,14.68
2022-12-07T07:54:26.831Z,15.45
2022-12-07T07:57:06.215Z,14.20
2022-12-07T07:59:36.232Z,13.02
2022-12-07T08:02:15.794Z,13.38
2022-12-07T08:05:16.948Z,12.77
2022-12-07T08:07:59.608Z,15.05
2022-12-07T08:10:28.607Z,14.43
2022-12-07T08:13:30.928Z,13.70
2022-12-07T08:15:59.356Z,14.13
2022-12-07T08:18:40.865Z,13.73
2022-12-07T08:21:09.550Z,13.63
2022-12-07T08:23:45.850Z,14.30
2022-12-07T08:26:26.158Z,13.45
2022-12-07T08:29:01.709Z,13.38
2022-12-07T08:31:34.696Z,15.13
2022-12-07T08:34:07.565Z,13.80
2022-12-07T08:36:57.866Z,13.68
2022-12-07T08:39:32.363Z,13.70
2022-12-07T08:42:00.971Z,13.75
2022-12-07T08:44:37.993Z,13.18
2022-12-07T08:47:08.061Z,13.20
2022-12-07T08:49:41.659Z,11.70
2022-12-07T08:52:25.092Z,13.18
2022-12-07T08:54:56.062Z,13.02
2022-12-07T08:57:38.480Z,13.80
2022-12-07T09:00:07.904Z,11.20
2022-12-07T09:02:52.155Z,13.10
2022-12-07T09:05:22.423Z,11.60
2022-12-07T09:07:57.678Z,12.43
2022-12-07T09:10:39.791Z,11.68
2022-12-07T09:13:15.007Z,11.07
2022-12-07T09:15:45.068Z,11.50
2022-12-07T09:18:16.634Z,11.57
2022-12-07T09:20:46.000Z,11.45
2022-12-07T09:23:15.068Z,12.68
2022-12-07T09:25:43.028Z,11.50
2022-12-07T09:28:36.754Z,9.95
2022-12-07T09:31:23.371Z,11.10
2022-12-07T09:34:13.734Z,11.60
2022-12-07T09:36:45.253Z,10.85
2022-12-07T09:41:48.447Z,9.98
2022-12-07T09:44:28.125Z,10.23
2022-12-07T09:46:56.432Z,10.55
2022-12-07T09:49:26.549Z,10.30
2022-12-07T09:52:17.310Z,9.73
2022-12-07T09:54:48.357Z,10.53
2022-12-07T09:57:28.512Z,9.43
2022-12-07T10:00:21.544Z,11.15
2022-12-07T10:03:11.380Z,9.32
2022-12-07T10:05:51.385Z,9.95
2022-12-07T10:08:25.440Z,9.75
2022-12-07T10:10:55.841Z,9.68
2022-12-07T10:13:39.662Z,9.32
2022-12-07T10:16:29.757Z,10.18
2022-12-07T10:18:58.628Z,9.65
2022-12-07T10:21:37.643Z,9.15
2022-12-07T10:24:17.095Z,9.88
2022-12-07T10:26:51.475Z,8.38
2022-12-07T10:29:31.597Z,8.77
2022-12-07T10:32:29.023Z,9.02
2022-12-07T10:35:19.203Z,9.55
2022-12-07T10:37:49.429Z,9.73
2022-12-07T10:40:29.056Z,9.68
2022-12-07T10:43:21.027Z,9.20
2022-12-07T10:46:30.922Z,10.43
2022-12-07T10:49:18.444Z,9.27
2022-12-07T10:51:48.596Z,9.23
2022-12-07T10:54:37.481Z,8.95
2022-12-07T10:57:26.730Z,8.70
2022-12-07T11:00:13.456Z,8.23
2022-12-07T11:03:00.054Z,7.68
2022-12-07T11:12:08.231Z,8.73
2022-12-07T11:15:06.326Z,8.40
2022-12-07T11:17:58.071Z,8.77
2022-12-07T11:23:17.823Z,9.82
2022-12-07T11:29:13.586Z,9.52
2022-12-07T11:35:19.184Z,9.75
2022-12-07T11:37:48.411Z,9.15
2022-12-07T11:40:20.487Z,9.20
2022-12-07T11:42:54.569Z,9.70
2022-12-07T11:48:44.022Z,7.97
2022-12-07T11:51:16.862Z,8.07
2022-12-07T11:54:00.097Z,8.50
2022-12-07T11:56:30.426Z,7.18
2022-12-07T11:59:26.461Z,8.20
2022-12-07T12:02:27.368Z,7.28
2022-12-07T12:05:02.433Z,7.18
2022-12-07T12:10:53.338Z,6.88
2022-12-07T12:17:24.009Z,7.10
2022-12-07T12:23:15.664Z,8.07
2022-12-07T12:26:00.679Z,6.57
2022-12-07T12:28:50.506Z,7.45
2022-12-07T12:31:32.808Z,7.30
2022-12-07T12:34:04.652Z,7.05
2022-12-07T12:36:57.301Z,8.18
2022-12-07T12:39:28.448Z,8.02
2022-12-07T12:42:29.362Z,7.95
2022-12-07T12:45:30.510Z,8.23
2022-12-07T12:48:07.008Z,6.70
2022-12-07T12:50:45.879Z,6.55
2022-12-07T12:53:36.737Z,7.45
2022-12-07T12:56:24.756Z,6.07
2022-12-07T12:59:11.727Z,5.80
2022-12-07T13:01:42.638Z,5.97
2022-12-07T13:04:29.734Z,7.20
2022-12-07T13:07:02.996Z,7.00
2022-12-07T13:09:46.729Z,6.70
2022-12-07T13:12:23.994Z,7.30
2022-12-07T13:14:57.307Z,6.93
2022-12-07T13:17:37.643Z,7.20
2022-12-07T13:20:15.861Z,5.93
2022-12-07T13:23:01.960Z,6.82
2022-12-07T13:25:50.363Z,6.80
2022-12-07T13:28:20.123Z,6.80
2022-12-07T13:30:50.162Z,6.60
2022-12-07T13:33:24.766Z,6.93
2022-12-07T13:36:07.822Z,6.68
2022-12-07T13:38:37.478Z,8.60
2022-12-07T13:41:25.753Z,7.60
2022-12-07T13:44:42.037Z,6.90
2022-12-07T13:47:15.224Z,6.70
2022-12-07T13:49:56.655Z,8.68
2022-12-07T13:52:29.985Z,8.48
2022-12-07T13:55:39.377Z,7.75
2022-12-07T13:58:12.585Z,7.57
2022-12-07T14:00:47.086Z,6.95
2022-12-07T14:03:32.406Z,6.97
2022-12-07T14:06:22.118Z,8.23
2022-12-07T14:08:58.525Z,6.97
2022-12-07T14:11:44.042Z,7.07
2022-12-07T14:14:36.515Z,7.38
2022-12-07T14:17:15.680Z,7.15
2022-12-07T14:20:02.771Z,7.03
2022-12-07T14:22:43.227Z,6.95
2022-12-07T14:25:20.500Z,6.90
2022-12-07T14:28:01.596Z,6.97
2022-12-07T14:30:40.661Z,7.28
2022-12-07T14:33:21.779Z,7.05
2022-12-07T14:35:51.105Z,7.38
2022-12-07T14:38:21.012Z,7.55
2022-12-07T14:41:26.723Z,7.60
2022-12-07T14:44:21.886Z,8.30
2022-12-07T14:46:45.160Z,7.03
2022-12-07T14:55:11.329Z,8.63
2022-12-07T14:57:50.134Z,9.20
2022-12-07T15:00:45.183Z,9.27
2022-12-07T15:03:19.463Z,9.65
2022-12-07T15:05:56.631Z,8.82
2022-12-07T15:08:35.258Z,9.02
2022-12-07T15:11:03.221Z,9.02
2022-12-07T15:13:53.955Z,9.15
2022-12-07T15:16:25.506Z,9.13
2022-12-07T15:19:27.294Z,10.18
2022-12-07T15:25:14.504Z,9.32
2022-12-07T15:27:44.301Z,7.63
2022-12-07T15:30:21.315Z,9.02
2022-12-07T15:32:52.848Z,8.68
2022-12-07T15:35:42.868Z,9.13
2022-12-07T15:38:57.453Z,9.75
2022-12-07T15:41:39.593Z,9.38
2022-12-07T15:44:30.935Z,9.00
2022-12-07T15:49:28.455Z,9.07
2022-12-07T15:51:57.744Z,10.27
2022-12-07T15:54:28.782Z,10.13
2022-12-07T15:56:57.470Z,10.27
2022-12-07T15:59:27.850Z,10.52
2022-12-07T16:01:56.165Z,10.43
2022-12-07T16:04:25.279Z,9.65
2022-12-07T16:06:54.151Z,10.00
2022-12-07T16:09:23.337Z,9.98
2022-12-07T16:11:52.739Z,11.77
2022-12-07T16:14:20.514Z,10.38
2022-12-07T16:16:48.476Z,11.05
2022-12-07T16:19:17.462Z,10.38
2022-12-07T16:21:51.976Z,10.23
2022-12-07T16:24:21.035Z,11.23
2022-12-07T16:26:50.465Z,11.95
2022-12-07T16:29:31.267Z,14.07
2022-12-07T16:32:00.163Z,12.57
2022-12-07T16:34:28.790Z,15.25
2022-12-07T16:37:05.373Z,12.77
2022-12-07T16:39:34.360Z,11.02
2022-12-07T16:42:05.511Z,10.23
2022-12-07T16:44:34.552Z,9.13
2022-12-07T16:47:05.582Z,9.65
2022-12-07T16:49:33.498Z,8.57
2022-12-07T16:52:19.895Z,9.30
2022-12-07T16:54:59.290Z,15.45
2022-12-07T16:57:34.515Z,13.55
2022-12-07T17:00:10.085Z,13.00
2022-12-07T17:02:47.735Z,12.40
2022-12-07T17:05:27.104Z,12.70
2022-12-07T17:08:03.955Z,13.65
2022-12-07T17:10:35.061Z,12.05
2022-12-07T17:16:15.865Z,12.32
2022-12-07T17:19:07.417Z,10.40
2022-12-07T17:21:41.582Z,9.60
2022-12-07T17:24:19.506Z,10.25
2022-12-07T17:26:54.345Z,9.98
2022-12-07T17:29:22.506Z,10.23
2022-12-07T17:31:52.380Z,8.98
2022-12-07T17:34:29.014Z,10.07
2022-12-07T17:37:01.862Z,7.97
2022-12-07T17:39:31.060Z,8.48
2022-12-07T17:42:21.562Z,8.02
2022-12-07T17:45:23.188Z,9.85
2022-12-07T17:47:51.245Z,12.18
2022-12-07T17:50:39.182Z,10.88
2022-12-07T17:53:12.820Z,10.63
2022-12-07T17:58:38.983Z,11.13
2022-12-07T18:01:12.264Z,11.02
2022-12-07T18:04:03.836Z,11.30
2022-12-07T18:06:46.244Z,12.10
2022-12-07T18:09:26.943Z,12.73
2022-12-07T18:11:56.012Z,11.18
2022-12-07T18:14:31.036Z,12.63
2022-12-07T18:17:01.064Z,12.25
2022-12-07T18:19:32.676Z,12.70
2022-12-07T18:22:02.315Z,11.27
2022-12-07T18:24:36.465Z,12.05
2022-12-07T18:27:08.452Z,11.50
2022-12-07T18:29:36.503Z,12.70
2022-12-07T18:32:12.551Z,11.02
2022-12-07T18:34:42.518Z,11.25
2022-12-07T18:37:22.945Z,10.73
2022-12-07T18:39:59.100Z,10.48
2022-12-07T18:42:48.799Z,10.27
2022-12-07T18:45:25.979Z,9.75
2022-12-07T18:47:55.103Z,9.02
2022-12-07T18:50:32.206Z,9.38
2022-12-07T18:53:10.491Z,9.02
2022-12-07T18:55:45.574Z,9.02
2022-12-07T18:58:13.352Z,7.82
2022-12-07T19:01:17.512Z,7.72
2022-12-07T19:03:57.783Z,7.60
2022-12-07T19:06:26.924Z,7.22
2022-12-07T19:08:58.974Z,7.38
2022-12-07T19:11:51.144Z,8.30
2022-12-07T19:14:27.646Z,8.00
2022-12-07T19:17:14.965Z,8.98
2022-12-07T19:19:50.593Z,9.82
2022-12-07T19:22:45.661Z,8.35
2022-12-07T19:25:15.374Z,7.90
2022-12-07T19:27:45.378Z,7.43
2022-12-07T19:30:21.430Z,7.43
2022-12-07T19:32:50.357Z,7.28
2022-12-07T19:35:18.401Z,8.10
2022-12-07T19:37:49.300Z,7.30
2022-12-07T19:40:26.694Z,8.48
2022-12-07T19:43:10.216Z,7.38
2022-12-07T19:45:39.021Z,6.40
2022-12-07T19:48:17.458Z,7.43
2022-12-07T19:50:45.234Z,6.25
2022-12-07T19:53:17.069Z,8.13
2022-12-07T19:55:44.801Z,8.50
2022-12-07T19:58:26.572Z,7.40
2022-12-07T20:01:04.272Z,6.85
2022-12-07T20:03:42.476Z,5.97
2022-12-07T20:06:26.794Z,6.68
2022-12-07T20:08:59.024Z,6.30
2022-12-07T20:11:52.549Z,6.95
2022-12-07T20:14:27.998Z,7.53
2022-12-07T20:16:57.124Z,7.50
2022-12-07T20:19:27.102Z,7.18
2022-12-07T20:21:59.195Z,7.75
2022-12-07T20:24:35.988Z,7.05
2022-12-07T20:27:15.486Z,8.23
2022-12-07T20:29:52.348Z,9.00
2022-12-07T20:32:27.303Z,10.05
2022-12-07T20:35:06.905Z,9.65
2022-12-07T20:37:36.303Z,8.18
2022-12-07T20:40:10.698Z,7.60
2022-12-07T20:42:38.577Z,7.53
2022-12-07T20:45:10.916Z,8.10
2022-12-07T20:47:49.120Z,7.97
2022-12-07T20:50:18.059Z,7.10
2022-12-07T20:53:00.545Z,6.40
2022-12-07T20:55:29.841Z,6.55
2022-12-07T21:10:53.113Z,7.20
2022-12-07T21:13:26.765Z,6.55
2022-12-07T21:15:56.991Z,5.93
2022-12-07T21:18:27.203Z,6.47
2022-12-07T21:20:56.273Z,7.03
2022-12-07T21:23:25.479Z,6.70
2022-12-07T21:25:57.203Z,5.50
2022-12-07T21:28:32.389Z,5.90
2022-12-07T21:31:16.276Z,5.82
2022-12-07T21:33:54.729Z,5.85
2022-12-07T21:36:42.410Z,6.13
2022-12-07T21:39:19.900Z,5.88
2022-12-07T21:41:49.965Z,6.32
2022-12-07T21:44:26.853Z,7.47
2022-12-07T21:47:16.886Z,7.15
2022-12-07T21:49:45.013Z,8.02
2022-12-07T21:52:13.875Z,14.60
2022-12-07T21:54:51.068Z,11.55
2022-12-07T21:57:24.120Z,10.27
2022-12-07T21:59:55.878Z,6.25
2022-12-07T22:02:25.210Z,7.63
2022-12-07T22:04:54.278Z,6.80
2022-12-07T22:07:41.930Z,6.18
2022-12-07T22:10:32.028Z,6.15
2022-12-07T22:13:00.657Z,6.68
2022-12-07T22:15:29.677Z,6.05
2022-12-07T22:18:00.743Z,3.30
2022-12-07T22:20:39.694Z,2.83
2022-12-07T22:23:10.516Z,2.80
2022-12-07T22:25:40.596Z,3.00
2022-12-07T22:28:08.564Z,3.03
2022-12-07T22:30:48.672Z,3.88
2022-12-07T22:33:20.038Z,5.85
2022-12-07T22:36:09.892Z,4.78
2022-12-07T22:41:55.834Z,4.88
2022-12-07T22:44:29.121Z,5.93
2022-12-07T22:47:18.878Z,7.35
2022-12-07T22:49:46.910Z,33.50
2022-12-07T22:52:28.974Z,8.55
2022-12-07T22:55:15.150Z,5.32
2022-12-07T22:57:48.447Z,3.67
2022-12-07T23:00:22.481Z,12.02
2022-12-07T23:02:51.587Z,4.07
2022-12-07T23:05:20.827Z,4.60
2022-12-07T23:07:53.161Z,4.60
2022-12-07T23:10:29.456Z,4.70
2022-12-07T23:13:25.329Z,4.82
2022-12-07T23:15:55.379Z,5.00
2022-12-07T23:18:23.482Z,5.10
2022-12-07T23:21:04.913Z,4.13
2022-12-07T23:23:33.098Z,4.60
2022-12-07T23:26:09.962Z,5.05
2022-12-07T23:28:39.424Z,4.75
2022-12-07T23:31:12.795Z,4.50
2022-12-07T23:33:56.350Z,4.45
2022-12-07T23:36:36.182Z,4.55
2022-12-07T23:39:07.608Z,5.65
2022-12-07T23:44:20.828Z,4.63
2022-12-07T23:46:50.748Z,4.55
2022-12-07T23:49:20.286Z,6.00
2022-12-07T23:52:11.178Z,5.07
2022-12-07T23:54:43.021Z,5.28
2022-12-07T23:57:12.286Z,4.95
2022-12-07T23:59:47.447Z,4.82
